Time;durP1;ratioP1;P1;durP2;ratioP2;P2;SDS_P1;SDS_P2;PMS_P1;PMS_P2;Temp;Humidity;BMP_temperature;BMP_pressure;BME280_temperature;BME280_humidity;BME280_pressure;Samples;Min_cycle;Max_cycle;Signal;HPM_P1;HPM_P2
2022/03/01 00:00:40;;;;;;;16.52;10.55;;;3.80;71.50;;;;;;5036035;28;20095;-66
2022/03/01 00:03:06;;;;;;;15.95;11.00;;;3.90;71.40;;;;;;5034013;28;20045;-65
2022/03/01 00:05:32;;;;;;;16.50;10.95;;;3.80;71.50;;;;;;5036506;28;20517;-66
2022/03/01 00:07:58;;;;;;;18.10;12.73;;;3.90;71.50;;;;;;5036291;28;20048;-65
2022/03/01 00:10:24;;;;;;;15.57;10.40;;;3.90;71.40;;;;;;5036733;28;20052;-66
2022/03/01 00:12:49;;;;;;;17.13;10.30;;;3.90;71.50;;;;;;5035764;28;20065;-66
2022/03/01 00:15:15;;;;;;;25.10;11.23;;;3.90;71.50;;;;;;5035571;28;20107;-66
2022/03/01 00:17:41;;;;;;;14.68;10.10;;;3.90;71.50;;;;;;5035371;28;20049;-66
2022/03/01 00:20:07;;;;;;;15.45;10.38;;;3.90;71.40;;;;;;5035234;28;20037;-66
2022/03/01 00:22:33;;;;;;;16.00;10.88;;;3.80;71.20;;;;;;5035624;28;20033;-66
2022/03/01 00:25:00;;;;;;;14.70;10.95;;;3.80;71.40;;;;;;5034861;28;20449;-65
2022/03/01 00:27:25;;;;;;;19.90;11.55;;;3.70;71.50;;;;;;5035963;28;20056;-66
2022/03/01 00:29:51;;;;;;;16.88;10.95;;;3.70;71.50;;;;;;5034126;28;20083;-66
2022/03/01 00:32:17;;;;;;;17.95;11.40;;;3.70;71.60;;;;;;5033627;28;20414;-65
2022/03/01 00:34:42;;;;;;;18.02;10.65;;;3.70;71.70;;;;;;5035755;28;20036;-66
2022/03/01 00:37:08;;;;;;;18.65;10.88;;;3.70;71.70;;;;;;5035903;28;20553;-66
2022/03/01 00:39:34;;;;;;;19.02;11.52;;;3.70;71.80;;;;;;5034577;28;20533;-66
2022/03/01 00:41:59;;;;;;;16.30;10.68;;;3.70;71.80;;;;;;5034173;28;20052;-65
2022/03/01 00:44:25;;;;;;;18.30;11.48;;;3.70;71.80;;;;;;5035185;28;20049;-66
2022/03/01 00:46:51;;;;;;;16.92;10.95;;;3.70;71.80;;;;;;5035105;28;20048;-66
2022/03/01 00:49:17;;;;;;;19.80;11.45;;;3.80;71.70;;;;;;5036029;28;20041;-66
2022/03/01 00:51:42;;;;;;;17.35;11.13;;;3.70;71.60;;;;;;5034683;28;20037;-66
2022/03/01 00:54:08;;;;;;;18.75;12.32;;;3.70;71.70;;;;;;5035197;28;20517;-66
2022/03/01 00:56:34;;;;;;;17.20;10.98;;;3.70;71.70;;;;;;5035146;28;20041;-66
2022/03/01 00:59:00;;;;;;;17.23;11.73;;;3.70;71.80;;;;;;5036336;28;20047;-66
2022/03/01 01:01:26;;;;;;;16.67;11.05;;;3.70;71.70;;;;;;5034127;28;20248;-66
2022/03/01 01:03:52;;;;;;;21.55;12.90;;;3.70;71.70;;;;;;5033568;28;20053;-66
2022/03/01 01:06:18;;;;;;;16.80;10.90;;;3.70;71.60;;;;;;5034407;28;20042;-65
2022/03/01 01:08:43;;;;;;;20.48;11.00;;;3.70;71.60;;;;;;5034405;28;20395;-66
2022/03/01 01:11:09;;;;;;;18.08;11.45;;;3.70;71.60;;;;;;5033504;28;20049;-66
2022/03/01 01:13:35;;;;;;;18.60;11.18;;;3.70;71.60;;;;;;5033907;28;20054;-66
2022/03/01 01:16:00;;;;;;;21.85;11.77;;;3.70;71.60;;;;;;5033997;28;20117;-66
2022/03/01 01:18:26;;;;;;;19.00;11.65;;;3.80;71.60;;;;;;5035741;28;20061;-66
2022/03/01 01:20:52;;;;;;;16.95;11.15;;;3.70;71.60;;;;;;5032192;28;20269;-66
2022/03/01 01:23:18;;;;;;;19.23;11.35;;;3.80;71.60;;;;;;5034431;28;20053;-66
2022/03/01 01:25:44;;;;;;;17.85;11.82;;;3.80;71.60;;;;;;5032897;28;20046;-65
2022/03/01 01:28:10;;;;;;;18.25;12.70;;;3.80;71.40;;;;;;5033145;28;20042;-64
2022/03/01 01:30:36;;;;;;;16.40;10.75;;;3.80;71.50;;;;;;5033685;28;20033;-66
2022/03/01 01:33:02;;;;;;;17.58;11.80;;;3.80;71.50;;;;;;5034278;28;20124;-66
2022/03/01 01:35:30;;;;;;;17.63;11.05;;;3.80;71.50;;;;;;5034815;28;20565;-65
2022/03/01 01:37:56;;;;;;;17.35;10.77;;;3.80;71.70;;;;;;5034709;28;20046;-66
2022/03/01 01:40:32;;;;;;;16.13;10.60;;;3.80;71.80;;;;;;5034096;28;20095;-66
2022/03/01 01:42:59;;;;;;;19.70;10.70;;;3.80;71.90;;;;;;5029746;28;20050;-66
2022/03/01 01:45:26;;;;;;;17.38;10.68;;;3.80;71.80;;;;;;5027257;28;20449;-66
2022/03/01 01:47:53;;;;;;;24.30;13.18;;;3.80;71.80;;;;;;5037442;28;20041;-65
2022/03/01 01:50:22;;;;;;;15.23;10.88;;;3.80;71.90;;;;;;5038462;28;20054;-65
2022/03/01 01:52:49;;;;;;;15.25;10.95;;;3.80;71.80;;;;;;5036545;28;20060;-65
2022/03/01 01:55:17;;;;;;;18.88;10.90;;;3.80;71.80;;;;;;5036473;28;20398;-65
2022/03/01 01:57:42;;;;;;;19.02;12.35;;;3.70;71.90;;;;;;5037041;28;20049;-66
2022/03/01 02:00:10;;;;;;;15.95;10.55;;;3.70;72.10;;;;;;5038936;28;20046;-64
2022/03/01 02:02:36;;;;;;;18.88;10.82;;;3.70;72.20;;;;;;5036886;28;20048;-66
2022/03/01 02:05:03;;;;;;;17.40;11.65;;;3.70;72.30;;;;;;5035863;28;20077;-66
2022/03/01 02:07:28;;;;;;;16.85;11.32;;;3.80;72.30;;;;;;5037344;28;20155;-66
2022/03/01 02:09:54;;;;;;;17.30;11.18;;;3.80;72.30;;;;;;5035919;28;20175;-66
2022/03/01 02:12:20;;;;;;;17.13;11.15;;;3.80;72.30;;;;;;5038239;28;20061;-64
2022/03/01 02:14:46;;;;;;;15.65;10.90;;;3.80;72.40;;;;;;5051754;28;20056;-68
2022/03/01 02:17:12;;;;;;;18.40;12.13;;;3.80;72.50;;;;;;5036374;28;20113;-66
2022/03/01 02:19:38;;;;;;;16.48;10.70;;;3.80;72.50;;;;;;5036330;28;20080;-66
2022/03/01 02:22:06;;;;;;;16.75;12.05;;;3.80;72.60;;;;;;5052233;28;20490;-66
2022/03/01 02:24:32;;;;;;;19.35;12.30;;;3.90;72.60;;;;;;5036538;28;20053;-66
2022/03/01 02:27:00;;;;;;;18.73;11.40;;;3.90;72.70;;;;;;5037319;28;20125;-65
2022/03/01 02:29:27;;;;;;;18.50;12.18;;;3.90;72.60;;;;;;5036960;28;20115;-65
2022/03/01 02:31:54;;;;;;;19.65;12.50;;;3.90;72.60;;;;;;5036783;28;20044;-66
2022/03/01 02:34:20;;;;;;;16.10;10.73;;;3.90;72.60;;;;;;5032427;28;20052;-66
2022/03/01 02:36:45;;;;;;;22.17;11.77;;;3.90;72.60;;;;;;5037285;28;20038;-66
2022/03/01 02:39:14;;;;;;;19.23;11.82;;;3.90;72.60;;;;;;5037647;28;20037;-66
2022/03/01 02:41:43;;;;;;;20.20;12.65;;;3.90;72.70;;;;;;5038412;28;20064;-65
2022/03/01 02:44:10;;;;;;;18.40;11.40;;;3.90;72.60;;;;;;5038572;28;20045;-66
2022/03/01 02:46:36;;;;;;;16.92;11.38;;;4.00;72.70;;;;;;5037892;28;20041;-66
2022/03/01 02:49:04;;;;;;;20.55;11.63;;;4.00;72.70;;;;;;5037765;28;20466;-66
2022/03/01 02:51:30;;;;;;;18.83;11.93;;;4.00;72.60;;;;;;5036402;28;20495;-67
2022/03/01 02:53:58;;;;;;;16.45;10.98;;;4.10;72.50;;;;;;5036761;28;20049;-66
2022/03/01 02:56:24;;;;;;;19.83;11.98;;;4.10;72.50;;;;;;5034673;28;20305;-66
2022/03/01 02:58:50;;;;;;;18.77;11.30;;;4.10;72.40;;;;;;5036353;28;20050;-66
2022/03/01 03:01:16;;;;;;;16.80;10.88;;;4.10;72.30;;;;;;5036283;28;20049;-66
2022/03/01 03:03:41;;;;;;;20.33;12.05;;;4.10;72.20;;;;;;5036834;28;20453;-66
2022/03/01 03:06:07;;;;;;;17.63;11.02;;;4.10;72.10;;;;;;5036372;28;20052;-66
2022/03/01 03:08:33;;;;;;;17.67;10.38;;;4.10;72.10;;;;;;5037037;28;20080;-66
2022/03/01 03:10:59;;;;;;;18.15;10.73;;;4.10;72.00;;;;;;5037453;28;20045;-66
2022/03/01 03:13:26;;;;;;;19.35;11.32;;;4.20;72.00;;;;;;5035864;28;20103;-65
2022/03/01 03:15:52;;;;;;;19.10;11.40;;;4.10;71.90;;;;;;5034836;28;20045;-67
2022/03/01 03:18:18;;;;;;;18.23;11.55;;;4.20;71.80;;;;;;5036068;28;20048;-66
2022/03/01 03:20:44;;;;;;;15.07;10.80;;;4.10;71.70;;;;;;5036333;28;20041;-66
2022/03/01 03:23:10;;;;;;;23.08;11.48;;;4.20;71.70;;;;;;5019519;28;20380;-66
2022/03/01 03:25:36;;;;;;;18.30;10.68;;;4.20;71.70;;;;;;5036077;28;20044;-66
2022/03/01 03:28:02;;;;;;;16.55;11.60;;;4.10;71.70;;;;;;5034567;28;20529;-66
2022/03/01 03:30:28;;;;;;;18.52;11.98;;;4.20;71.70;;;;;;5033355;28;20064;-67
2022/03/01 03:32:53;;;;;;;20.02;12.32;;;4.20;71.70;;;;;;5035021;28;20042;-66
2022/03/01 03:35:19;;;;;;;16.75;11.60;;;4.20;71.70;;;;;;5033715;28;20672;-67
2022/03/01 03:37:45;;;;;;;18.40;11.80;;;4.20;71.70;;;;;;5034155;28;20617;-66
2022/03/01 03:40:11;;;;;;;26.25;12.27;;;4.20;71.60;;;;;;5034344;28;20076;-66
2022/03/01 03:42:37;;;;;;;17.67;11.27;;;4.20;71.70;;;;;;5034182;28;20045;-66
2022/03/01 03:45:05;;;;;;;18.02;12.18;;;4.30;71.70;;;;;;5034453;28;20038;-65
2022/03/01 03:47:31;;;;;;;18.80;11.30;;;4.20;71.60;;;;;;5034587;28;20037;-66
2022/03/01 03:49:57;;;;;;;20.65;12.48;;;4.20;71.70;;;;;;5034590;28;20041;-66
2022/03/01 03:52:23;;;;;;;18.52;12.32;;;4.20;71.70;;;;;;5034183;28;20033;-65
2022/03/01 03:54:50;;;;;;;18.05;11.57;;;4.20;71.60;;;;;;5035939;28;20521;-66
2022/03/01 03:57:16;;;;;;;17.23;12.18;;;4.20;71.50;;;;;;5034549;28;20099;-66
2022/03/01 03:59:42;;;;;;;15.57;11.18;;;4.20;71.40;;;;;;5029599;28;20048;-66
2022/03/01 04:02:07;;;;;;;17.88;10.95;;;4.10;71.50;;;;;;5021530;28;20128;-66
2022/03/01 04:04:34;;;;;;;19.90;12.52;;;4.20;71.60;;;;;;5030322;28;20470;-66
2022/03/01 04:06:59;;;;;;;19.00;12.52;;;4.20;71.60;;;;;;5033625;28;20045;-66
2022/03/01 04:09:25;;;;;;;16.30;11.45;;;4.20;71.50;;;;;;5034662;28;20491;-66
2022/03/01 04:11:51;;;;;;;20.15;11.98;;;4.20;71.50;;;;;;5033318;28;20046;-67
2022/03/01 04:14:17;;;;;;;17.20;12.23;;;4.20;71.60;;;;;;5035332;28;20104;-66
2022/03/01 04:16:44;;;;;;;17.17;11.30;;;4.20;71.60;;;;;;5034572;28;20157;-66
2022/03/01 04:19:10;;;;;;;15.95;10.25;;;4.20;71.70;;;;;;5035982;28;20049;-66
2022/03/01 04:21:36;;;;;;;23.88;12.13;;;4.20;71.70;;;;;;5035216;28;20180;-67
2022/03/01 04:24:02;;;;;;;19.17;11.85;;;4.20;71.70;;;;;;5035100;28;20097;-67
2022/03/01 04:26:28;;;;;;;16.10;10.77;;;4.20;71.80;;;;;;5035197;28;20037;-67
2022/03/01 04:28:54;;;;;;;18.25;11.30;;;4.20;71.70;;;;;;5034069;28;20045;-67
2022/03/01 04:31:21;;;;;;;17.95;12.05;;;4.20;71.60;;;;;;5034466;28;20088;-66
2022/03/01 04:33:47;;;;;;;18.08;12.27;;;4.20;71.60;;;;;;5034535;28;20042;-66
2022/03/01 04:36:13;;;;;;;15.50;11.40;;;4.20;71.50;;;;;;5034237;28;20064;-67
2022/03/01 04:38:39;;;;;;;18.05;10.27;;;4.20;71.60;;;;;;5032919;28;20053;-66
2022/03/01 04:41:05;;;;;;;20.33;12.68;;;4.20;71.70;;;;;;5037492;28;20052;-66
2022/03/01 04:43:31;;;;;;;17.70;11.15;;;4.30;71.70;;;;;;5053008;28;20072;-66
2022/03/01 04:45:57;;;;;;;20.33;12.35;;;4.30;71.70;;;;;;5033037;28;20045;-66
2022/03/01 04:48:23;;;;;;;16.73;10.77;;;4.30;71.70;;;;;;5035251;28;20064;-65
2022/03/01 04:50:50;;;;;;;17.45;11.43;;;4.20;71.60;;;;;;5035027;28;20037;-66
2022/03/01 04:53:16;;;;;;;18.33;11.95;;;4.30;71.60;;;;;;5035443;28;20049;-67
2022/03/01 04:55:44;;;;;;;17.95;11.10;;;4.30;71.70;;;;;;5034220;28;20410;-66
2022/03/01 04:58:10;;;;;;;20.52;12.90;;;4.30;71.60;;;;;;5035058;28;20046;-66
2022/03/01 05:00:35;;;;;;;18.92;11.90;;;4.30;71.50;;;;;;5033569;28;20372;-67
2022/03/01 05:03:01;;;;;;;21.20;11.70;;;4.30;71.50;;;;;;5033921;28;20091;-66
2022/03/01 05:05:27;;;;;;;18.02;11.15;;;4.20;71.50;;;;;;5033902;28;20474;-66
2022/03/01 05:07:53;;;;;;;18.17;10.93;;;4.30;71.50;;;;;;5034492;28;20049;-66
2022/03/01 05:10:19;;;;;;;19.95;11.02;;;4.20;71.40;;;;;;5034439;28;20046;-67
2022/03/01 05:12:52;;;;;;;16.85;11.65;;;4.20;71.50;;;;;;5035252;28;20060;-66
2022/03/01 05:15:18;;;;;;;18.67;12.43;;;4.30;71.50;;;;;;5033736;28;20045;-66
2022/03/01 05:17:45;;;;;;;15.00;9.77;;;4.20;71.40;;;;;;5050487;28;20064;-67
2022/03/01 05:20:13;;;;;;;17.23;11.15;;;4.20;71.50;;;;;;5035927;28;20048;-66
2022/03/01 05:22:39;;;;;;;17.60;11.48;;;4.20;71.60;;;;;;5038210;28;20045;-66
2022/03/01 05:25:09;;;;;;;18.15;11.40;;;4.20;71.50;;;;;;5039262;28;20045;-66
2022/03/01 05:27:35;;;;;;;16.83;10.75;;;4.20;71.40;;;;;;5037927;28;20041;-67
2022/03/01 05:30:01;;;;;;;21.65;12.50;;;4.20;71.30;;;;;;5036748;28;20087;-66
2022/03/01 05:32:27;;;;;;;23.05;11.27;;;4.20;71.40;;;;;;5037453;28;20038;-66
2022/03/01 05:34:53;;;;;;;17.85;12.55;;;4.20;71.50;;;;;;5039620;28;20065;-64
2022/03/01 05:37:19;;;;;;;20.92;11.27;;;4.20;71.60;;;;;;5038283;28;20132;-66
2022/03/01 05:39:44;;;;;;;21.05;12.23;;;4.20;71.60;;;;;;5038349;28;20084;-66
2022/03/01 05:42:10;;;;;;;17.75;11.52;;;4.30;71.50;;;;;;5038774;28;20045;-66
2022/03/01 05:44:36;;;;;;;17.30;10.82;;;4.30;71.50;;;;;;5036647;28;20112;-67
2022/03/01 05:47:01;;;;;;;19.85;11.32;;;4.30;71.60;;;;;;5021931;28;20053;-67
2022/03/01 05:49:27;;;;;;;17.40;12.18;;;4.30;71.50;;;;;;5036385;28;20046;-66
2022/03/01 05:51:52;;;;;;;18.83;12.02;;;4.40;71.50;;;;;;5036430;28;20045;-66
2022/03/01 05:54:19;;;;;;;16.55;10.75;;;4.30;71.60;;;;;;5036139;28;20037;-67
2022/03/01 05:56:44;;;;;;;15.05;10.80;;;4.30;71.70;;;;;;5036388;28;20083;-66
2022/03/01 05:59:10;;;;;;;18.38;10.98;;;4.30;71.60;;;;;;5035104;28;20123;-66
2022/03/01 06:01:36;;;;;;;17.08;10.75;;;4.40;71.60;;;;;;5035605;28;20045;-66
2022/03/01 06:04:03;;;;;;;19.33;11.93;;;4.40;71.60;;;;;;5036336;28;20056;-66
2022/03/01 06:06:29;;;;;;;22.42;12.55;;;4.40;71.60;;;;;;5034496;28;20047;-66
2022/03/01 06:08:54;;;;;;;18.35;11.70;;;4.40;71.50;;;;;;5038453;28;20045;-67
2022/03/01 06:11:21;;;;;;;18.33;11.68;;;4.40;71.60;;;;;;5037107;28;20069;-67
2022/03/01 06:13:46;;;;;;;16.83;11.20;;;4.50;71.50;;;;;;5042229;28;20057;-66
2022/03/01 06:16:12;;;;;;;20.35;11.85;;;4.40;71.60;;;;;;5036693;28;20057;-66
2022/03/01 06:18:37;;;;;;;17.85;11.98;;;4.40;71.70;;;;;;5025336;28;20325;-66
2022/03/01 06:21:03;;;;;;;18.83;11.68;;;4.40;71.70;;;;;;5032427;28;20410;-66
2022/03/01 06:23:31;;;;;;;20.02;12.10;;;4.50;71.80;;;;;;5037824;28;20042;-65
2022/03/01 06:25:57;;;;;;;13.73;7.25;;;4.40;71.60;;;;;;5034454;28;20053;-62
2022/03/01 06:28:22;;;;;;;20.70;10.98;;;5.80;88.10;;;;;;5031958;28;20114;-62
2022/03/01 06:30:48;;;;;;;15.88;9.60;;;7.50;71.30;;;;;;5032250;28;20049;-62
2022/03/01 06:33:14;;;;;;;16.48;10.65;;;8.60;63.90;;;;;;5032480;28;20038;-67
2022/03/01 06:35:39;;;;;;;15.93;9.68;;;9.40;60.00;;;;;;5035302;28;20061;-67
2022/03/01 06:38:05;;;;;;;17.33;11.35;;;9.10;61.00;;;;;;5033377;28;20056;-67
2022/03/01 06:40:31;;;;;;;17.58;11.35;;;8.50;61.00;;;;;;5031371;28;20515;-68
2022/03/01 06:42:56;;;;;;;19.25;12.40;;;8.00;61.80;;;;;;5031384;28;20049;-68
2022/03/01 06:45:22;;;;;;;16.40;10.93;;;7.60;62.90;;;;;;5031264;28;20037;-67
2022/03/01 06:47:49;;;;;;;18.70;11.65;;;7.10;64.10;;;;;;5029930;28;20445;-68
2022/03/01 06:50:15;;;;;;;19.63;12.38;;;6.80;64.70;;;;;;5030937;28;20052;-68
2022/03/01 06:52:41;;;;;;;16.83;10.85;;;6.60;65.60;;;;;;5030554;28;20356;-67
2022/03/01 06:55:08;;;;;;;16.58;10.95;;;6.40;65.80;;;;;;5030291;28;20038;-67
2022/03/01 06:57:36;;;;;;;18.27;11.80;;;6.10;66.20;;;;;;5025879;28;20108;-67
2022/03/01 07:00:03;;;;;;;18.10;11.25;;;6.00;66.80;;;;;;5029630;28;20507;-66
2022/03/01 07:02:29;;;;;;;18.92;12.45;;;5.80;67.30;;;;;;5030990;28;20119;-67
2022/03/01 07:04:54;;;;;;;19.38;10.98;;;5.70;67.70;;;;;;5031187;28;20053;-67
2022/03/01 07:07:22;;;;;;;18.55;11.40;;;5.60;67.90;;;;;;5030972;28;20046;-67
2022/03/01 07:09:47;;;;;;;20.58;12.50;;;5.60;68.30;;;;;;5030271;28;20045;-65
2022/03/01 07:12:13;;;;;;;20.85;11.55;;;6.00;72.60;;;;;;5029190;28;20045;-65
2022/03/01 07:14:39;;;;;;;19.10;12.23;;;6.10;69.90;;;;;;5030400;28;20073;-65
2022/03/01 07:17:04;;;;;;;16.88;11.82;;;6.10;68.80;;;;;;5030362;28;20041;-65
2022/03/01 07:19:30;;;;;;;19.00;11.95;;;5.90;68.30;;;;;;5029657;28;20052;-65
2022/03/01 07:21:56;;;;;;;18.60;12.10;;;5.90;68.40;;;;;;5029597;28;20056;-64
2022/03/01 07:24:21;;;;;;;18.85;10.30;;;5.90;68.60;;;;;;5028831;28;20538;-65
2022/03/01 07:26:47;;;;;;;17.45;11.45;;;6.70;75.30;;;;;;5030508;28;20475;-66
2022/03/01 07:29:13;;;;;;;16.27;11.50;;;7.10;70.90;;;;;;5029891;28;20053;-66
2022/03/01 07:31:38;;;;;;;16.40;11.18;;;7.10;68.20;;;;;;5030913;28;20045;-66
2022/03/01 07:34:04;;;;;;;18.08;10.68;;;6.90;66.90;;;;;;5030268;28;20491;-66
2022/03/01 07:36:30;;;;;;;20.55;11.75;;;6.70;66.50;;;;;;5030273;28;20049;-65
2022/03/01 07:38:55;;;;;;;19.92;11.75;;;6.60;67.00;;;;;;5031516;28;20077;-66
2022/03/01 07:41:21;;;;;;;16.17;11.20;;;6.40;67.20;;;;;;5031153;28;20410;-66
2022/03/01 07:43:47;;;;;;;16.77;10.75;;;6.30;67.40;;;;;;5030142;28;20044;-66
2022/03/01 07:46:13;;;;;;;15.60;11.02;;;6.10;67.30;;;;;;5030404;28;20124;-66
2022/03/01 07:48:42;;;;;;;18.88;12.50;;;6.00;67.60;;;;;;5030393;28;20136;-66
2022/03/01 07:51:08;;;;;;;20.67;11.77;;;6.00;68.00;;;;;;5029761;28;20068;-66
2022/03/01 07:53:34;;;;;;;17.52;12.57;;;5.90;68.00;;;;;;5029596;28;20125;-65
2022/03/01 07:56:00;;;;;;;17.13;11.05;;;5.90;68.20;;;;;;5031027;28;20146;-65
2022/03/01 07:58:26;;;;;;;28.33;13.25;;;5.80;68.10;;;;;;5031254;28;20045;-65
2022/03/01 08:00:52;;;;;;;18.90;12.05;;;5.80;68.10;;;;;;5030422;28;20111;-65
2022/03/01 08:03:18;;;;;;;18.30;11.88;;;5.80;68.20;;;;;;5030701;28;20076;-65
2022/03/01 08:05:51;;;;;;;18.27;11.75;;;5.80;68.30;;;;;;5170132;27;19911;-65
2022/03/01 08:08:17;;;;;;;18.88;12.43;;;5.80;68.40;;;;;;5148197;27;20069;-65
2022/03/01 08:10:43;;;;;;;20.58;12.40;;;5.80;68.50;;;;;;5148291;27;20037;-65
2022/03/01 08:13:08;;;;;;;19.13;11.60;;;5.80;68.60;;;;;;5148661;27;20066;-65
2022/03/01 08:15:34;;;;;;;22.02;12.45;;;5.80;68.70;;;;;;5148969;27;20055;-65
2022/03/01 08:18:00;;;;;;;17.77;11.52;;;5.80;68.80;;;;;;5130118;27;20419;-65
2022/03/01 08:20:27;;;;;;;17.75;11.48;;;5.80;68.90;;;;;;5148860;27;20053;-65
2022/03/01 08:22:53;;;;;;;19.25;12.52;;;5.80;69.00;;;;;;5130308;27;20055;-65
2022/03/01 08:25:19;;;;;;;20.38;12.10;;;5.80;69.20;;;;;;5148130;27;20092;-65
2022/03/01 08:27:46;;;;;;;25.77;13.85;;;5.80;69.10;;;;;;5148547;27;20074;-65
2022/03/01 08:30:12;;;;;;;16.85;11.48;;;5.90;69.10;;;;;;5148972;27;20035;-65
2022/03/01 08:32:38;;;;;;;15.73;11.73;;;5.90;69.00;;;;;;5148617;27;20035;-65
2022/03/01 08:35:04;;;;;;;20.15;11.77;;;5.90;68.80;;;;;;5148342;27;20086;-65
2022/03/01 08:37:30;;;;;;;17.42;11.68;;;5.90;68.40;;;;;;5147998;27;20118;-65
2022/03/01 08:39:56;;;;;;;16.30;11.70;;;5.90;68.50;;;;;;5148376;27;20571;-65
2022/03/01 08:42:22;;;;;;;20.10;12.38;;;5.90;68.50;;;;;;5148426;27;20054;-65
2022/03/01 08:44:47;;;;;;;21.45;14.52;;;5.90;68.60;;;;;;5129330;27;20125;-65
2022/03/01 08:47:13;;;;;;;20.50;12.85;;;5.90;68.70;;;;;;5148427;27;20135;-65
2022/03/01 08:49:39;;;;;;;26.83;13.57;;;5.90;68.80;;;;;;5148206;27;20039;-65
2022/03/01 08:52:04;;;;;;;21.80;12.70;;;5.90;68.80;;;;;;5147866;27;20464;-65
2022/03/01 08:54:30;;;;;;;23.08;13.40;;;5.90;68.90;;;;;;5128764;27;20039;-65
2022/03/01 08:56:56;;;;;;;27.60;14.05;;;5.90;68.90;;;;;;5146994;27;20088;-65
2022/03/01 08:59:22;;;;;;;25.10;13.80;;;5.90;69.00;;;;;;5147628;27;20484;-65
2022/03/01 09:01:48;;;;;;;23.42;14.13;;;6.00;69.00;;;;;;5147176;27;20035;-65
2022/03/01 09:04:13;;;;;;;22.52;12.55;;;6.00;69.00;;;;;;5128233;27;20415;-65
2022/03/01 09:06:39;;;;;;;21.65;13.82;;;6.00;68.80;;;;;;5147882;27;20500;-65
2022/03/01 09:09:05;;;;;;;20.42;13.70;;;6.00;68.90;;;;;;5147816;27;20427;-65
2022/03/01 09:11:30;;;;;;;21.20;13.35;;;6.10;69.00;;;;;;5147673;27;20034;-65
2022/03/01 09:13:56;;;;;;;20.52;12.90;;;6.10;68.80;;;;;;5129562;27;20551;-65
2022/03/01 09:16:22;;;;;;;18.63;12.15;;;6.10;68.70;;;;;;5138658;27;20132;-65
2022/03/01 09:18:48;;;;;;;22.45;13.30;;;6.20;68.80;;;;;;5129147;27;20031;-65
2022/03/01 09:21:13;;;;;;;18.70;12.55;;;6.20;68.50;;;;;;5112826;28;20039;-65
2022/03/01 09:23:41;;;;;;;20.30;12.18;;;6.20;68.40;;;;;;5112090;28;20040;-65
2022/03/01 09:26:06;;;;;;;23.73;14.48;;;6.20;68.50;;;;;;5112610;28;20040;-65
2022/03/01 09:28:32;;;;;;;20.83;13.50;;;6.30;68.40;;;;;;5113244;28;20036;-65
2022/03/01 09:30:57;;;;;;;22.63;12.98;;;6.40;68.30;;;;;;5113124;28;20494;-65
2022/03/01 09:33:23;;;;;;;19.30;12.20;;;6.40;68.00;;;;;;5113019;28;20036;-64
2022/03/01 09:35:49;;;;;;;20.42;13.95;;;6.50;67.80;;;;;;5094440;28;20043;-65
2022/03/01 09:38:15;;;;;;;20.65;12.95;;;6.60;67.70;;;;;;5112974;28;20040;-65
2022/03/01 09:40:40;;;;;;;21.45;13.70;;;6.60;67.60;;;;;;5113033;28;20044;-65
2022/03/01 09:43:07;;;;;;;22.33;14.10;;;6.70;67.20;;;;;;5095104;28;20078;-64
2022/03/01 09:45:33;;;;;;;20.42;14.05;;;6.70;67.30;;;;;;5112723;28;20040;-65
2022/03/01 09:47:59;;;;;;;19.85;12.82;;;6.80;67.10;;;;;;5113035;28;20062;-65
2022/03/01 09:50:28;;;;;;;20.55;13.38;;;6.80;66.90;;;;;;5112011;28;20432;-65
2022/03/01 09:52:58;;;;;;;20.98;12.30;;;6.70;66.40;;;;;;5112803;28;20384;-65
2022/03/01 09:55:25;;;;;;;21.08;13.95;;;6.70;66.70;;;;;;5112573;28;20047;-65
2022/03/01 09:57:51;;;;;;;25.35;13.30;;;6.80;66.90;;;;;;5112755;28;20059;-65
2022/03/01 10:00:17;;;;;;;22.35;13.43;;;6.90;66.90;;;;;;5112331;28;20048;-65
2022/03/01 10:02:45;;;;;;;26.23;14.88;;;6.90;66.70;;;;;;5112415;28;20075;-65
2022/03/01 10:05:12;;;;;;;26.73;14.45;;;6.90;66.50;;;;;;5112213;28;20051;-65
2022/03/01 10:07:44;;;;;;;26.15;15.43;;;6.90;66.40;;;;;;5112576;28;20138;-65
2022/03/01 10:10:19;;;;;;;20.15;13.23;;;6.90;66.20;;;;;;5112612;28;20035;-65
2022/03/01 10:12:55;;;;;;;27.95;14.75;;;6.90;66.40;;;;;;5111623;28;20468;-65
2022/03/01 10:15:31;;;;;;;22.33;14.77;;;7.00;66.60;;;;;;5112323;28;20051;-65
2022/03/01 10:17:57;;;;;;;23.65;15.82;;;7.10;66.60;;;;;;5093866;28;20055;-65
2022/03/01 10:20:23;;;;;;;23.30;14.20;;;7.10;66.50;;;;;;5093645;28;20035;-64
2022/03/01 10:22:51;;;;;;;24.30;15.02;;;7.10;66.40;;;;;;5076077;28;20055;-64
2022/03/01 10:25:21;;;;;;;27.83;15.00;;;7.20;66.70;;;;;;5112303;28;20079;-64
2022/03/01 10:27:48;;;;;;;25.88;15.55;;;7.20;66.50;;;;;;5110974;28;20051;-64
2022/03/01 10:30:22;;;;;;;27.17;15.48;;;7.20;66.80;;;;;;5112064;28;20070;-64
2022/03/01 10:32:48;;;;;;;25.67;16.23;;;7.30;67.30;;;;;;5111684;28;20048;-64
2022/03/01 10:35:13;;;;;;;31.15;15.77;;;7.30;67.20;;;;;;5111826;28;20036;-64
2022/03/01 10:37:40;;;;;;;33.50;17.45;;;7.30;67.30;;;;;;5111723;28;20545;-64
2022/03/01 10:40:21;;;;;;;28.90;17.27;;;7.30;67.40;;;;;;5111104;28;20103;-64
2022/03/01 10:43:02;;;;;;;32.42;17.98;;;7.30;67.10;;;;;;5111424;28;20101;-64
2022/03/01 10:45:33;;;;;;;29.42;17.40;;;7.30;67.30;;;;;;5111627;28;20051;-65
2022/03/01 10:47:59;;;;;;;33.95;18.92;;;7.30;67.40;;;;;;5111862;28;20040;-65
2022/03/01 10:50:24;;;;;;;29.50;17.38;;;7.20;67.20;;;;;;5092867;28;20040;-65
2022/03/01 10:52:50;;;;;;;26.30;17.10;;;7.30;67.30;;;;;;5111033;28;20078;-65
2022/03/01 10:55:27;;;;;;;27.27;17.08;;;7.20;67.40;;;;;;5111571;28;20043;-65
2022/03/01 10:58:02;;;;;;;31.38;17.23;;;7.20;67.70;;;;;;5111841;28;20106;-65
2022/03/01 11:00:29;;;;;;;31.80;16.85;;;7.10;67.70;;;;;;5110708;28;20043;-65
2022/03/01 11:02:54;;;;;;;29.20;17.30;;;7.10;67.90;;;;;;5111191;28;20078;-64
2022/03/01 11:05:21;;;;;;;30.63;17.40;;;7.10;68.20;;;;;;5110728;28;20087;-64
2022/03/01 11:07:49;;;;;;;26.58;17.27;;;7.10;68.40;;;;;;5111229;28;20119;-64
2022/03/01 11:10:17;;;;;;;28.38;16.67;;;7.20;68.60;;;;;;5110759;28;20079;-65
2022/03/01 11:12:44;;;;;;;27.20;16.95;;;7.20;68.80;;;;;;5092730;28;20047;-64
2022/03/01 11:15:16;;;;;;;29.23;15.70;;;7.20;69.50;;;;;;5093247;28;20078;-65
2022/03/01 11:17:57;;;;;;;27.90;15.25;;;7.30;69.50;;;;;;5110756;28;20573;-65
2022/03/01 11:20:27;;;;;;;24.23;16.25;;;7.40;69.60;;;;;;5110883;28;20576;-65
2022/03/01 11:22:58;;;;;;;25.73;16.92;;;7.30;69.80;;;;;;5092787;28;20048;-65
2022/03/01 11:25:27;;;;;;;22.20;15.05;;;7.30;70.40;;;;;;5110745;28;20130;-65
2022/03/01 11:28:05;;;;;;;25.50;17.27;;;7.40;70.50;;;;;;5111080;28;20040;-65
2022/03/01 11:30:36;;;;;;;28.13;17.80;;;7.40;70.70;;;;;;5110561;28;20502;-64
2022/03/01 11:33:02;;;;;;;26.17;15.55;;;7.40;70.90;;;;;;5092959;28;20093;-65
2022/03/01 11:35:32;;;;;;;27.20;15.52;;;7.40;71.30;;;;;;5110984;28;20044;-65
2022/03/01 11:38:07;;;;;;;22.65;16.08;;;7.40;71.50;;;;;;5110311;28;20047;-65
2022/03/01 11:40:40;;;;;;;22.00;14.23;;;7.50;71.80;;;;;;5110413;28;20047;-65
2022/03/01 11:43:17;;;;;;;21.88;15.32;;;7.50;71.70;;;;;;5110969;28;20051;-65
2022/03/01 11:45:51;;;;;;;23.02;15.60;;;7.60;71.80;;;;;;5110718;28;20096;-65
2022/03/01 11:48:26;;;;;;;22.00;14.73;;;7.60;72.00;;;;;;5110737;28;20044;-65
2022/03/01 11:50:59;;;;;;;21.30;14.35;;;7.60;72.00;;;;;;5110733;28;20083;-65
2022/03/01 11:53:33;;;;;;;22.38;15.88;;;7.60;72.00;;;;;;5110088;28;20043;-65
2022/03/01 11:56:00;;;;;;;21.95;14.88;;;7.60;72.00;;;;;;5092651;28;20105;-65
2022/03/01 11:58:27;;;;;;;24.65;15.32;;;7.60;72.20;;;;;;5092293;28;20052;-65
2022/03/01 12:00:53;;;;;;;21.33;14.82;;;7.60;72.20;;;;;;5092090;28;20278;-65
2022/03/01 12:03:22;;;;;;;22.63;15.20;;;7.70;72.50;;;;;;5110470;28;20115;-65
2022/03/01 12:05:49;;;;;;;21.83;14.52;;;7.70;72.20;;;;;;5110539;28;20071;-65
2022/03/01 12:08:17;;;;;;;20.48;14.90;;;7.70;72.00;;;;;;5110595;28;20052;-65
2022/03/01 12:10:54;;;;;;;21.05;15.07;;;7.80;72.00;;;;;;5110333;28;20454;-65
2022/03/01 12:13:20;;;;;;;22.80;15.02;;;7.80;71.90;;;;;;5092465;28;20055;-65
2022/03/01 12:15:56;;;;;;;21.20;14.18;;;7.90;72.20;;;;;;5109984;28;20457;-64
2022/03/01 12:18:28;;;;;;;20.67;15.20;;;7.90;72.50;;;;;;5110441;28;20077;-65
2022/03/01 12:20:54;;;;;;;23.13;14.75;;;7.90;72.40;;;;;;5110230;28;20047;-65
2022/03/01 12:23:30;;;;;;;24.70;15.00;;;8.00;72.70;;;;;;5109688;28;20047;-65
2022/03/01 12:25:59;;;;;;;22.08;15.48;;;8.00;72.80;;;;;;5110056;28;20044;-65
2022/03/01 12:28:28;;;;;;;23.55;15.55;;;8.00;72.80;;;;;;5110255;28;20040;-65
2022/03/01 12:30:54;;;;;;;20.40;15.00;;;8.00;72.60;;;;;;5110329;28;20055;-65
2022/03/01 12:33:19;;;;;;;25.33;15.75;;;8.00;72.50;;;;;;5109931;28;20035;-65
2022/03/01 12:35:58;;;;;;;20.67;13.68;;;8.10;72.40;;;;;;5109892;28;20527;-65